sensor_id;sensor_type;location;lat;lon;timestamp;pressure;altitude;pressure_sealevel;temperature;humidity
11041;BME280;5573;49.592;8.662;2023-02-10T00:01:32;101770.94;;;-2.24;100.00
11041;BME280;5573;49.592;8.662;2023-02-10T00:04:00;101781.09;;;-2.31;100.00
11041;BME280;5573;49.592;8.662;2023-02-10T00:06:30;101763.44;;;-2.39;100.00
11041;BME280;5573;49.592;8.662;2023-02-10T00:08:59;101773.25;;;-2.33;100.00
11041;BME280;5573;49.592;8.662;2023-02-10T00:11:28;101787.47;;;-2.37;100.00
11041;BME280;5573;49.592;8.662;2023-02-10T00:14:22;101786.16;;;-2.35;100.00
11041;BME280;5573;49.592;8.662;2023-02-10T00:16:50;101789.94;;;-2.53;100.00
11041;BME280;5573;49.592;8.662;2023-02-10T00:19:18;101777.31;;;-2.47;100.00
11041;BME280;5573;49.592;8.662;2023-02-10T00:21:48;101780.50;;;-2.33;100.00
11041;BME280;5573;49.592;8.662;2023-02-10T00:24:16;101787.53;;;-2.32;100.00
11041;BME280;5573;49.592;8.662;2023-02-10T00:26:44;101789.91;;;-2.36;100.00
11041;BME280;5573;49.592;8.662;2023-02-10T00:29:12;101795.31;;;-2.36;100.00
11041;BME280;5573;49.592;8.662;2023-02-10T00:31:40;101794.25;;;-2.52;100.00
11041;BME280;5573;49.592;8.662;2023-02-10T00:34:12;101802.31;;;-2.52;100.00
11041;BME280;5573;49.592;8.662;2023-02-10T00:36:40;101800.19;;;-2.50;100.00
11041;BME280;5573;49.592;8.662;2023-02-10T00:39:13;101806.41;;;-2.49;100.00
11041;BME280;5573;49.592;8.662;2023-02-10T00:41:41;101806.66;;;-2.34;100.00
11041;BME280;5573;49.592;8.662;2023-02-10T00:44:09;101801.50;;;-2.35;100.00
11041;BME280;5573;49.592;8.662;2023-02-10T00:46:37;101815.56;;;-2.33;100.00
11041;BME280;5573;49.592;8.662;2023-02-10T00:49:05;101810.06;;;-2.38;100.00
11041;BME280;5573;49.592;8.662;2023-02-10T00:51:34;101808.06;;;-2.48;100.00
11041;BME280;5573;49.592;8.662;2023-02-10T00:54:02;101812.13;;;-2.46;100.00
11041;BME280;5573;49.592;8.662;2023-02-10T00:56:31;101821.59;;;-2.43;100.00
11041;BME280;5573;49.592;8.662;2023-02-10T00:58:58;101830.34;;;-2.36;100.00
11041;BME280;5573;49.592;8.662;2023-02-10T01:01:26;101829.22;;;-2.40;100.00
11041;BME280;5573;49.592;8.662;2023-02-10T01:03:54;101832.22;;;-2.36;100.00
11041;BME280;5573;49.592;8.662;2023-02-10T01:06:22;101842.69;;;-2.40;100.00
11041;BME280;5573;49.592;8.662;2023-02-10T01:08:49;101836.38;;;-2.46;100.00
11041;BME280;5573;49.592;8.662;2023-02-10T01:11:17;101839.88;;;-2.45;100.00
11041;BME280;5573;49.592;8.662;2023-02-10T01:13:48;101839.88;;;-2.45;100.00
11041;BME280;5573;49.592;8.662;2023-02-10T01:16:15;101850.19;;;-2.42;100.00
11041;BME280;5573;49.592;8.662;2023-02-10T01:18:44;101844.47;;;-2.46;100.00
11041;BME280;5573;49.592;8.662;2023-02-10T01:21:14;101830.41;;;-2.64;100.00
11041;BME280;5573;49.592;8.662;2023-02-10T01:23:42;101822.06;;;-2.80;100.00
11041;BME280;5573;49.592;8.662;2023-02-10T01:26:11;101851.34;;;-2.55;100.00
11041;BME280;5573;49.592;8.662;2023-02-10T01:28:39;101852.13;;;-2.54;100.00
11041;BME280;5573;49.592;8.662;2023-02-10T01:31:12;101831.38;;;-2.71;100.00
11041;BME280;5573;49.592;8.662;2023-02-10T01:33:40;101854.03;;;-2.55;100.00
11041;BME280;5573;49.592;8.662;2023-02-10T01:36:11;101857.19;;;-2.58;100.00
11041;BME280;5573;49.592;8.662;2023-02-10T01:38:39;101854.66;;;-2.64;100.00
11041;BME280;5573;49.592;8.662;2023-02-10T01:41:08;101850.56;;;-2.67;100.00
11041;BME280;5573;49.592;8.662;2023-02-10T01:43:55;101841.56;;;-2.73;100.00
11041;BME280;5573;49.592;8.662;2023-02-10T01:46:26;101847.13;;;-2.79;100.00
11041;BME280;5573;49.592;8.662;2023-02-10T01:48:55;101842.34;;;-2.89;100.00
11041;BME280;5573;49.592;8.662;2023-02-10T01:51:32;101841.88;;;-2.86;100.00
11041;BME280;5573;49.592;8.662;2023-02-10T01:54:02;101849.00;;;-2.80;100.00
11041;BME280;5573;49.592;8.662;2023-02-10T01:56:30;101846.03;;;-2.78;100.00
11041;BME280;5573;49.592;8.662;2023-02-10T01:58:58;101851.34;;;-2.83;100.00
11041;BME280;5573;49.592;8.662;2023-02-10T02:01:28;101847.75;;;-2.89;100.00
11041;BME280;5573;49.592;8.662;2023-02-10T02:03:58;101855.25;;;-2.91;100.00
11041;BME280;5573;49.592;8.662;2023-02-10T02:06:28;101851.84;;;-2.87;100.00
11041;BME280;5573;49.592;8.662;2023-02-10T02:08:58;101849.53;;;-2.95;100.00
11041;BME280;5573;49.592;8.662;2023-02-10T02:11:31;101849.78;;;-2.96;100.00
11041;BME280;5573;49.592;8.662;2023-02-10T02:14:12;101852.19;;;-3.12;100.00
11041;BME280;5573;49.592;8.662;2023-02-10T02:16:54;101845.97;;;-3.12;100.00
11041;BME280;5573;49.592;8.662;2023-02-10T02:19:51;101842.22;;;-3.11;100.00
11041;BME280;5573;49.592;8.662;2023-02-10T02:22:56;101858.22;;;-3.04;100.00
11041;BME280;5573;49.592;8.662;2023-02-10T02:25:39;101852.31;;;-3.18;100.00
11041;BME280;5573;49.592;8.662;2023-02-10T02:28:23;101862.13;;;-3.12;100.00
11041;BME280;5573;49.592;8.662;2023-02-10T02:31:07;101857.66;;;-3.07;100.00
11041;BME280;5573;49.592;8.662;2023-02-10T02:33:47;101863.53;;;-3.10;100.00
11041;BME280;5573;49.592;8.662;2023-02-10T02:36:18;101862.22;;;-3.07;100.00
11041;BME280;5573;49.592;8.662;2023-02-10T02:38:49;101871.97;;;-3.18;100.00
11041;BME280;5573;49.592;8.662;2023-02-10T02:41:22;101876.88;;;-3.15;100.00
11041;BME280;5573;49.592;8.662;2023-02-10T02:43:52;101853.59;;;-3.21;100.00
11041;BME280;5573;49.592;8.662;2023-02-10T02:46:26;101877.00;;;-3.10;100.00
11041;BME280;5573;49.592;8.662;2023-02-10T02:49:02;101885.66;;;-3.08;100.00
11041;BME280;5573;49.592;8.662;2023-02-10T02:51:38;101882.84;;;-3.13;100.00
11041;BME280;5573;49.592;8.662;2023-02-10T02:54:13;101888.84;;;-3.22;100.00
11041;BME280;5573;49.592;8.662;2023-02-10T02:56:45;101886.34;;;-3.12;100.00
11041;BME280;5573;49.592;8.662;2023-02-10T02:59:18;101899.22;;;-3.14;100.00
11041;BME280;5573;49.592;8.662;2023-02-10T03:01:50;101901.09;;;-3.15;100.00
11041;BME280;5573;49.592;8.662;2023-02-10T03:04:25;101908.28;;;-3.20;100.00
11041;BME280;5573;49.592;8.662;2023-02-10T03:06:54;101900.44;;;-3.22;100.00
11041;BME280;5573;49.592;8.662;2023-02-10T03:09:21;101895.78;;;-3.27;100.00
11041;BME280;5573;49.592;8.662;2023-02-10T03:11:49;101902.53;;;-3.24;100.00
11041;BME280;5573;49.592;8.662;2023-02-10T03:14:17;101896.81;;;-3.28;100.00
11041;BME280;5573;49.592;8.662;2023-02-10T03:16:44;101903.84;;;-3.27;100.00
11041;BME280;5573;49.592;8.662;2023-02-10T03:19:12;101903.34;;;-3.23;100.00
11041;BME280;5573;49.592;8.662;2023-02-10T03:21:41;101890.47;;;-3.21;100.00
11041;BME280;5573;49.592;8.662;2023-02-10T03:24:09;101898.56;;;-3.21;100.00
11041;BME280;5573;49.592;8.662;2023-02-10T03:26:37;101883.56;;;-3.29;100.00
11041;BME280;5573;49.592;8.662;2023-02-10T03:29:05;101889.22;;;-3.31;100.00
11041;BME280;5573;49.592;8.662;2023-02-10T03:31:33;101880.88;;;-3.29;100.00
11041;BME280;5573;49.592;8.662;2023-02-10T03:34:01;101876.09;;;-3.27;100.00
11041;BME280;5573;49.592;8.662;2023-02-10T03:36:29;101882.06;;;-3.25;100.00
11041;BME280;5573;49.592;8.662;2023-02-10T03:39:02;101877.88;;;-3.33;100.00
11041;BME280;5573;49.592;8.662;2023-02-10T03:41:30;101881.38;;;-3.32;100.00
11041;BME280;5573;49.592;8.662;2023-02-10T03:43:57;101881.00;;;-3.24;100.00
11041;BME280;5573;49.592;8.662;2023-02-10T03:46:25;101879.94;;;-3.23;100.00
11041;BME280;5573;49.592;8.662;2023-02-10T03:48:53;101884.75;;;-3.25;100.00
11041;BME280;5573;49.592;8.662;2023-02-10T03:51:20;101886.53;;;-3.31;100.00
11041;BME280;5573;49.592;8.662;2023-02-10T03:53:48;101887.34;;;-3.30;100.00
11041;BME280;5573;49.592;8.662;2023-02-10T03:56:17;101885.72;;;-3.43;100.00
11041;BME280;5573;49.592;8.662;2023-02-10T03:58:45;101893.66;;;-3.36;100.00
11041;BME280;5573;49.592;8.662;2023-02-10T04:01:14;101896.13;;;-3.35;100.00
11041;BME280;5573;49.592;8.662;2023-02-10T04:03:43;101894.38;;;-3.53;100.00
11041;BME280;5573;49.592;8.662;2023-02-10T04:06:11;101862.72;;;-3.74;100.00
11041;BME280;5573;49.592;8.662;2023-02-10T04:08:40;101898.84;;;-3.47;100.00
11041;BME280;5573;49.592;8.662;2023-02-10T04:11:08;101898.97;;;-3.41;100.00
11041;BME280;5573;49.592;8.662;2023-02-10T04:13:37;101892.91;;;-3.60;100.00
11041;BME280;5573;49.592;8.662;2023-02-10T04:16:06;101892.41;;;-3.57;100.00
11041;BME280;5573;49.592;8.662;2023-02-10T04:18:34;101901.16;;;-3.38;100.00
11041;BME280;5573;49.592;8.662;2023-02-10T04:21:04;101900.34;;;-3.39;100.00
11041;BME280;5573;49.592;8.662;2023-02-10T04:23:32;101895.19;;;-3.40;100.00
11041;BME280;5573;49.592;8.662;2023-02-10T04:26:00;101900.56;;;-3.29;100.00
11041;BME280;5573;49.592;8.662;2023-02-10T04:28:29;101905.81;;;-3.22;100.00
11041;BME280;5573;49.592;8.662;2023-02-10T04:30:59;101903.00;;;-3.27;100.00
11041;BME280;5573;49.592;8.662;2023-02-10T04:33:28;101904.53;;;-3.31;100.00
11041;BME280;5573;49.592;8.662;2023-02-10T04:35:55;101907.72;;;-3.46;100.00
11041;BME280;5573;49.592;8.662;2023-02-10T04:38:24;101909.09;;;-3.32;100.00
11041;BME280;5573;49.592;8.662;2023-02-10T04:40:52;101914.84;;;-3.28;100.00
11041;BME280;5573;49.592;8.662;2023-02-10T04:43:19;101919.03;;;-3.20;100.00
11041;BME280;5573;49.592;8.662;2023-02-10T04:45:50;101914.78;;;-3.16;100.00
11041;BME280;5573;49.592;8.662;2023-02-10T04:48:19;101926.19;;;-3.26;100.00
11041;BME280;5573;49.592;8.662;2023-02-10T04:50:47;101927.50;;;-3.29;100.00
11041;BME280;5573;49.592;8.662;2023-02-10T04:53:15;101866.00;;;-3.72;100.00
11041;BME280;5573;49.592;8.662;2023-02-10T04:55:42;101926.31;;;-3.33;100.00
11041;BME280;5573;49.592;8.662;2023-02-10T04:58:11;101934.03;;;-3.24;100.00
11041;BME280;5573;49.592;8.662;2023-02-10T05:00:38;101936.72;;;-3.24;100.00
11041;BME280;5573;49.592;8.662;2023-02-10T05:03:06;101935.88;;;-3.13;100.00
11041;BME280;5573;49.592;8.662;2023-02-10T05:05:35;101943.34;;;-3.03;100.00
11041;BME280;5573;49.592;8.662;2023-02-10T05:08:03;101953.28;;;-2.92;100.00
11041;BME280;5573;49.592;8.662;2023-02-10T05:10:31;101956.75;;;-2.80;100.00
11041;BME280;5573;49.592;8.662;2023-02-10T05:12:59;101943.75;;;-2.83;100.00
11041;BME280;5573;49.592;8.662;2023-02-10T05:15:27;101947.56;;;-2.67;100.00
11041;BME280;5573;49.592;8.662;2023-02-10T05:17:54;101957.13;;;-2.59;100.00
11041;BME280;5573;49.592;8.662;2023-02-10T05:20:22;101957.69;;;-2.57;100.00
11041;BME280;5573;49.592;8.662;2023-02-10T05:22:51;101965.09;;;-2.53;100.00
11041;BME280;5573;49.592;8.662;2023-02-10T05:25:18;101972.44;;;-2.48;100.00
11041;BME280;5573;49.592;8.662;2023-02-10T05:27:47;101973.91;;;-2.40;100.00
11041;BME280;5573;49.592;8.662;2023-02-10T05:30:15;101969.59;;;-2.41;100.00
11041;BME280;5573;49.592;8.662;2023-02-10T05:32:42;101968.72;;;-2.30;100.00
11041;BME280;5573;49.592;8.662;2023-02-10T05:35:11;101962.34;;;-2.24;100.00
11041;BME280;5573;49.592;8.662;2023-02-10T05:37:38;101964.16;;;-2.30;100.00
11041;BME280;5573;49.592;8.662;2023-02-10T05:40:08;101957.22;;;-2.26;100.00
11041;BME280;5573;49.592;8.662;2023-02-10T05:42:36;101962.44;;;-2.36;100.00
11041;BME280;5573;49.592;8.662;2023-02-10T05:45:04;101971.31;;;-2.35;100.00
11041;BME280;5573;49.592;8.662;2023-02-10T05:47:32;101966.75;;;-2.35;100.00
11041;BME280;5573;49.592;8.662;2023-02-10T05:49:59;101963.00;;;-2.34;100.00
11041;BME280;5573;49.592;8.662;2023-02-10T05:52:27;101974.44;;;-2.27;100.00
11041;BME280;5573;49.592;8.662;2023-02-10T05:54:54;101968.47;;;-2.29;100.00
11041;BME280;5573;49.592;8.662;2023-02-10T05:57:23;101971.91;;;-2.33;100.00
11041;BME280;5573;49.592;8.662;2023-02-10T05:59:51;101976.63;;;-2.23;100.00
11041;BME280;5573;49.592;8.662;2023-02-10T06:02:19;101978.63;;;-2.19;100.00
11041;BME280;5573;49.592;8.662;2023-02-10T06:04:47;101995.00;;;-2.09;100.00
11041;BME280;5573;49.592;8.662;2023-02-10T06:07:15;101995.88;;;-2.03;100.00
11041;BME280;5573;49.592;8.662;2023-02-10T06:09:43;101994.09;;;-1.97;100.00
11041;BME280;5573;49.592;8.662;2023-02-10T06:12:13;102002.44;;;-1.99;100.00
11041;BME280;5573;49.592;8.662;2023-02-10T06:14:42;102003.13;;;-1.92;100.00
11041;BME280;5573;49.592;8.662;2023-02-10T06:17:09;102000.88;;;-1.95;100.00
11041;BME280;5573;49.592;8.662;2023-02-10T06:19:38;101998.75;;;-1.93;100.00
11041;BME280;5573;49.592;8.662;2023-02-10T06:22:07;101997.44;;;-1.90;100.00
11041;BME280;5573;49.592;8.662;2023-02-10T06:24:35;101998.03;;;-1.71;100.00
11041;BME280;5573;49.592;8.662;2023-02-10T06:27:03;101999.69;;;-1.70;100.00
11041;BME280;5573;49.592;8.662;2023-02-10T06:29:30;101996.72;;;-1.86;100.00
11041;BME280;5573;49.592;8.662;2023-02-10T06:31:59;102004.00;;;-1.86;100.00
11041;BME280;5573;49.592;8.662;2023-02-10T06:34:27;102001.47;;;-1.59;100.00
11041;BME280;5573;49.592;8.662;2023-02-10T06:36:55;101996.56;;;-1.62;100.00
11041;BME280;5573;49.592;8.662;2023-02-10T06:39:22;101991.75;;;-1.60;100.00
11041;BME280;5573;49.592;8.662;2023-02-10T06:41:50;102000.25;;;-1.51;100.00
11041;BME280;5573;49.592;8.662;2023-02-10T06:44:18;102001.69;;;-1.44;100.00
11041;BME280;5573;49.592;8.662;2023-02-10T06:46:46;102004.53;;;-1.33;100.00
11041;BME280;5573;49.592;8.662;2023-02-10T06:49:15;102004.50;;;-1.38;100.00
11041;BME280;5573;49.592;8.662;2023-02-10T06:51:42;101994.81;;;-1.34;100.00
11041;BME280;5573;49.592;8.662;2023-02-10T06:54:10;102009.91;;;-1.16;100.00
11041;BME280;5573;49.592;8.662;2023-02-10T06:56:38;102007.72;;;-1.19;100.00
11041;BME280;5573;49.592;8.662;2023-02-10T06:59:06;102009.88;;;-1.21;100.00
11041;BME280;5573;49.592;8.662;2023-02-10T07:01:34;102017.53;;;-1.13;100.00
11041;BME280;5573;49.592;8.662;2023-02-10T07:04:01;102020.88;;;-1.06;100.00
11041;BME280;5573;49.592;8.662;2023-02-10T07:06:30;102017.75;;;-0.98;100.00
11041;BME280;5573;49.592;8.662;2023-02-10T07:08:58;102008.44;;;-0.85;100.00
11041;BME280;5573;49.592;8.662;2023-02-10T07:11:26;102013.41;;;-0.77;100.00
11041;BME280;5573;49.592;8.662;2023-02-10T07:13:53;102015.16;;;-0.66;100.00
11041;BME280;5573;49.592;8.662;2023-02-10T07:16:22;102021.09;;;-0.69;100.00
11041;BME280;5573;49.592;8.662;2023-02-10T07:18:50;102022.72;;;-0.90;100.00
11041;BME280;5573;49.592;8.662;2023-02-10T07:21:18;102019.72;;;-0.71;100.00
11041;BME280;5573;49.592;8.662;2023-02-10T07:23:47;102023.00;;;-0.69;100.00
11041;BME280;5573;49.592;8.662;2023-02-10T07:26:14;102024.72;;;-0.58;100.00
11041;BME280;5573;49.592;8.662;2023-02-10T07:28:44;102025.88;;;-0.54;100.00
11041;BME280;5573;49.592;8.662;2023-02-10T07:31:12;102023.22;;;-0.49;100.00
11041;BME280;5573;49.592;8.662;2023-02-10T07:33:40;102029.19;;;-0.47;100.00
11041;BME280;5573;49.592;8.662;2023-02-10T07:36:08;102020.81;;;-0.23;100.00
11041;BME280;5573;49.592;8.662;2023-02-10T07:38:36;102013.25;;;-0.21;100.00
11041;BME280;5573;49.592;8.662;2023-02-10T07:41:05;102011.41;;;-0.15;100.00
11041;BME280;5573;49.592;8.662;2023-02-10T07:43:34;102008.31;;;-0.02;100.00
11041;BME280;5573;49.592;8.662;2023-02-10T07:46:08;102010.22;;;0.03;100.00
11041;BME280;5573;49.592;8.662;2023-02-10T07:48:36;102014.34;;;0.10;100.00
11041;BME280;5573;49.592;8.662;2023-02-10T07:51:04;102016.50;;;0.08;99.86
11041;BME280;5573;49.592;8.662;2023-02-10T07:53:31;102019.75;;;0.10;97.90
11041;BME280;5573;49.592;8.662;2023-02-10T07:55:59;102014.81;;;0.02;98.01
11041;BME280;5573;49.592;8.662;2023-02-10T07:58:28;102022.28;;;0.17;97.11
11041;BME280;5573;49.592;8.662;2023-02-10T08:00:57;102011.50;;;0.27;95.44
11041;BME280;5573;49.592;8.662;2023-02-10T08:03:24;102011.94;;;0.46;93.15
11041;BME280;5573;49.592;8.662;2023-02-10T08:05:52;102007.69;;;0.55;93.13
11041;BME280;5573;49.592;8.662;2023-02-10T08:08:20;102025.59;;;0.62;92.04
11041;BME280;5573;49.592;8.662;2023-02-10T08:10:47;102031.03;;;0.67;91.62
11041;BME280;5573;49.592;8.662;2023-02-10T08:13:15;102030.97;;;0.56;92.97
11041;BME280;5573;49.592;8.662;2023-02-10T08:15:45;102032.31;;;0.54;94.75
11041;BME280;5573;49.592;8.662;2023-02-10T08:18:13;102019.97;;;0.73;92.17
11041;BME280;5573;49.592;8.662;2023-02-10T08:20:41;102027.84;;;0.75;90.91
11041;BME280;5573;49.592;8.662;2023-02-10T08:23:13;102033.44;;;0.63;92.74
11041;BME280;5573;49.592;8.662;2023-02-10T08:25:41;102036.31;;;0.84;91.16
11041;BME280;5573;49.592;8.662;2023-02-10T08:28:09;102034.63;;;0.77;92.35
11041;BME280;5573;49.592;8.662;2023-02-10T08:30:37;102048.16;;;0.72;91.81
11041;BME280;5573;49.592;8.662;2023-02-10T08:33:06;102039.97;;;0.62;91.80
11041;BME280;5573;49.592;8.662;2023-02-10T08:35:34;102038.47;;;0.81;90.59
11041;BME280;5573;49.592;8.662;2023-02-10T08:38:02;102046.34;;;0.83;91.76
11041;BME280;5573;49.592;8.662;2023-02-10T08:40:31;102046.91;;;0.90;93.04
11041;BME280;5573;49.592;8.662;2023-02-10T08:42:58;102057.78;;;0.95;93.12
11041;BME280;5573;49.592;8.662;2023-02-10T08:45:26;102049.53;;;0.80;94.07
11041;BME280;5573;49.592;8.662;2023-02-10T08:47:54;102054.63;;;1.09;93.68
11041;BME280;5573;49.592;8.662;2023-02-10T08:50:23;102055.88;;;0.91;95.20
11041;BME280;5573;49.592;8.662;2023-02-10T08:52:51;102049.38;;;0.97;95.26
11041;BME280;5573;49.592;8.662;2023-02-10T08:55:18;102050.78;;;0.99;95.99
11041;BME280;5573;49.592;8.662;2023-02-10T08:57:46;102053.19;;;0.96;97.23
11041;BME280;5573;49.592;8.662;2023-02-10T09:00:14;102030.81;;;0.73;97.15
11041;BME280;5573;49.592;8.662;2023-02-10T09:02:42;102062.44;;;1.00;95.93
11041;BME280;5573;49.592;8.662;2023-02-10T09:05:10;102074.75;;;1.23;94.96
11041;BME280;5573;49.592;8.662;2023-02-10T09:07:39;102084.00;;;1.32;95.06
11041;BME280;5573;49.592;8.662;2023-02-10T09:10:08;102080.56;;;1.47;93.16
11041;BME280;5573;49.592;8.662;2023-02-10T09:12:37;102086.38;;;1.71;92.82
11041;BME280;5573;49.592;8.662;2023-02-10T09:15:05;102088.03;;;1.82;91.31
11041;BME280;5573;49.592;8.662;2023-02-10T09:17:33;102091.50;;;1.68;91.11
11041;BME280;5573;49.592;8.662;2023-02-10T09:20:01;102089.25;;;1.44;92.91
11041;BME280;5573;49.592;8.662;2023-02-10T09:22:29;102094.66;;;1.49;94.96
11041;BME280;5573;49.592;8.662;2023-02-10T09:24:58;102098.19;;;1.45;93.99
11041;BME280;5573;49.592;8.662;2023-02-10T09:27:26;102098.19;;;1.45;95.69
11041;BME280;5573;49.592;8.662;2023-02-10T09:29:53;102099.13;;;1.76;93.09
11041;BME280;5573;49.592;8.662;2023-02-10T09:32:21;102096.69;;;1.74;91.23
11041;BME280;5573;49.592;8.662;2023-02-10T09:34:49;102098.94;;;2.03;89.66
11041;BME280;5573;49.592;8.662;2023-02-10T09:37:16;102101.72;;;2.39;88.26
11041;BME280;5573;49.592;8.662;2023-02-10T09:39:44;102100.63;;;2.19;87.52
11041;BME280;5573;49.592;8.662;2023-02-10T09:42:22;102103.34;;;2.19;86.97
11041;BME280;5573;49.592;8.662;2023-02-10T09:44:58;102097.34;;;2.28;87.21
11041;BME280;5573;49.592;8.662;2023-02-10T09:47:35;102091.94;;;2.33;88.19
11041;BME280;5573;49.592;8.662;2023-02-10T09:50:33;102097.34;;;2.22;89.92
11041;BME280;5573;49.592;8.662;2023-02-10T09:53:09;102098.19;;;2.38;88.74
11041;BME280;5573;49.592;8.662;2023-02-10T09:55:41;102089.44;;;2.11;90.08
11041;BME280;5573;49.592;8.662;2023-02-10T09:58:17;102106.59;;;2.32;89.08
11041;BME280;5573;49.592;8.662;2023-02-10T10:00:48;102106.91;;;2.40;91.16
11041;BME280;5573;49.592;8.662;2023-02-10T10:03:19;102102.28;;;2.61;90.07
11041;BME280;5573;49.592;8.662;2023-02-10T10:06:00;102106.34;;;2.79;87.02
11041;BME280;5573;49.592;8.662;2023-02-10T10:08:34;102103.06;;;2.98;85.66
11041;BME280;5573;49.592;8.662;2023-02-10T10:11:12;102094.13;;;2.87;87.52
11041;BME280;5573;49.592;8.662;2023-02-10T10:13:46;102104.44;;;3.00;87.50
11041;BME280;5573;49.592;8.662;2023-02-10T10:16:23;102094.63;;;3.04;89.68
11041;BME280;5573;49.592;8.662;2023-02-10T10:19:01;102097.91;;;2.96;83.68
11041;BME280;5573;49.592;8.662;2023-02-10T10:21:37;102095.69;;;3.24;83.19
11041;BME280;5573;49.592;8.662;2023-02-10T10:24:21;102099.44;;;3.38;83.16
11041;BME280;5573;49.592;8.662;2023-02-10T10:26:59;102096.31;;;3.71;80.28
11041;BME280;5573;49.592;8.662;2023-02-10T10:29:39;102097.50;;;3.54;79.09
11041;BME280;5573;49.592;8.662;2023-02-10T10:32:15;102102.31;;;3.73;73.73
11041;BME280;5573;49.592;8.662;2023-02-10T10:34:49;102103.66;;;3.80;76.50
11041;BME280;5573;49.592;8.662;2023-02-10T10:37:19;102096.16;;;4.06;74.26
11041;BME280;5573;49.592;8.662;2023-02-10T10:39:48;102102.88;;;4.19;72.58
11041;BME280;5573;49.592;8.662;2023-02-10T10:42:22;102088.00;;;4.01;72.25
11041;BME280;5573;49.592;8.662;2023-02-10T10:44:55;102093.03;;;4.23;71.97
11041;BME280;5573;49.592;8.662;2023-02-10T10:47:36;102092.38;;;4.42;68.66
11041;BME280;5573;49.592;8.662;2023-02-10T10:50:10;102093.03;;;4.28;68.26
11041;BME280;5573;49.592;8.662;2023-02-10T10:52:41;102081.69;;;4.51;68.86
11041;BME280;5573;49.592;8.662;2023-02-10T10:55:13;102083.84;;;4.54;67.04
11041;BME280;5573;49.592;8.662;2023-02-10T10:57:42;102083.28;;;4.86;66.24
11041;BME280;5573;49.592;8.662;2023-02-10T11:00:19;102052.56;;;4.75;64.55
11041;BME280;5573;49.592;8.662;2023-02-10T11:02:57;102085.28;;;5.04;65.32
11041;BME280;5573;49.592;8.662;2023-02-10T11:05:30;102058.06;;;4.70;63.46
11041;BME280;5573;49.592;8.662;2023-02-10T11:07:59;102079.47;;;4.87;62.11
11041;BME280;5573;49.592;8.662;2023-02-10T11:10:32;102080.47;;;5.20;62.46
11041;BME280;5573;49.592;8.662;2023-02-10T11:13:02;102084.13;;;5.35;61.31
11041;BME280;5573;49.592;8.662;2023-02-10T11:15:37;102072.06;;;5.17;60.39
11041;BME280;5573;49.592;8.662;2023-02-10T11:18:12;102069.56;;;4.96;60.02
11041;BME280;5573;49.592;8.662;2023-02-10T11:20:52;102055.72;;;4.87;61.00
11041;BME280;5573;49.592;8.662;2023-02-10T11:23:21;102034.34;;;4.71;60.80
11041;BME280;5573;49.592;8.662;2023-02-10T11:25:57;102055.25;;;4.80;60.10
11041;BME280;5573;49.592;8.662;2023-02-10T11:28:27;102053.44;;;5.00;58.94
11041;BME280;5573;49.592;8.662;2023-02-10T11:31:00;102051.19;;;4.78;60.35
11041;BME280;5573;49.592;8.662;2023-02-10T11:33:30;102047.63;;;4.48;61.48
11041;BME280;5573;49.592;8.662;2023-02-10T11:36:03;102050.97;;;4.40;61.86
11041;BME280;5573;49.592;8.662;2023-02-10T11:38:33;102052.06;;;4.39;64.13
11041;BME280;5573;49.592;8.662;2023-02-10T11:41:02;102056.41;;;4.45;65.07
11041;BME280;5573;49.592;8.662;2023-02-10T11:43:36;102045.09;;;4.57;64.51
11041;BME280;5573;49.592;8.662;2023-02-10T11:46:06;102049.59;;;4.72;63.17
11041;BME280;5573;49.592;8.662;2023-02-10T11:48:36;102049.50;;;4.82;62.92
11041;BME280;5573;49.592;8.662;2023-02-10T11:51:12;102043.38;;;4.95;63.46
11041;BME280;5573;49.592;8.662;2023-02-10T11:53:41;102041.22;;;4.92;62.61
11041;BME280;5573;49.592;8.662;2023-02-10T11:56:15;102023.72;;;4.98;63.45
11041;BME280;5573;49.592;8.662;2023-02-10T11:58:59;102037.75;;;5.11;62.77
11041;BME280;5573;49.592;8.662;2023-02-10T12:01:53;102037.28;;;5.27;61.23
11041;BME280;5573;49.592;8.662;2023-02-10T12:04:54;102048.19;;;5.52;60.83
11041;BME280;5573;49.592;8.662;2023-02-10T12:07:37;102046.50;;;5.56;60.88
11041;BME280;5573;49.592;8.662;2023-02-10T12:10:14;102043.56;;;5.90;60.21
11041;BME280;5573;49.592;8.662;2023-02-10T12:12:48;102041.31;;;6.16;57.67
11041;BME280;5573;49.592;8.662;2023-02-10T12:15:28;102039.06;;;5.80;59.05
11041;BME280;5573;49.592;8.662;2023-02-10T12:18:12;102040.69;;;5.81;59.99
11041;BME280;5573;49.592;8.662;2023-02-10T12:20:52;102038.88;;;5.96;59.28
11041;BME280;5573;49.592;8.662;2023-02-10T12:23:35;102041.44;;;6.25;58.74
11041;BME280;5573;49.592;8.662;2023-02-10T12:26:18;102045.50;;;6.27;57.82
11041;BME280;5573;49.592;8.662;2023-02-10T12:28:59;102040.00;;;6.14;58.72
11041;BME280;5573;49.592;8.662;2023-02-10T12:31:38;102026.53;;;6.17;59.19
11041;BME280;5573;49.592;8.662;2023-02-10T12:34:22;102025.81;;;6.12;59.67
11041;BME280;5573;49.592;8.662;2023-02-10T12:36:59;102026.78;;;6.02;59.03
11041;BME280;5573;49.592;8.662;2023-02-10T12:39:36;102027.69;;;5.92;58.71
11041;BME280;5573;49.592;8.662;2023-02-10T12:42:20;102026.00;;;5.77;59.84
11041;BME280;5573;49.592;8.662;2023-02-10T12:45:00;102023.56;;;5.57;61.23
11041;BME280;5573;49.592;8.662;2023-02-10T12:47:38;102016.03;;;5.48;61.79
11041;BME280;5573;49.592;8.662;2023-02-10T12:50:36;102009.06;;;5.37;62.36
11041;BME280;5573;49.592;8.662;2023-02-10T12:53:12;102013.44;;;5.57;62.14
11041;BME280;5573;49.592;8.662;2023-02-10T12:55:49;102019.78;;;5.53;61.66
11041;BME280;5573;49.592;8.662;2023-02-10T12:58:23;102018.91;;;5.57;62.50
11041;BME280;5573;49.592;8.662;2023-02-10T13:01:00;102008.78;;;5.58;62.79
11041;BME280;5573;49.592;8.662;2023-02-10T13:03:33;101964.44;;;5.47;63.39
11041;BME280;5573;49.592;8.662;2023-02-10T13:06:16;102007.03;;;5.86;61.20
11041;BME280;5573;49.592;8.662;2023-02-10T13:08:49;102011.16;;;5.83;60.76
11041;BME280;5573;49.592;8.662;2023-02-10T13:11:26;102011.28;;;5.97;59.87
11041;BME280;5573;49.592;8.662;2023-02-10T13:13:57;101999.44;;;5.83;59.46
11041;BME280;5573;49.592;8.662;2023-02-10T13:16:29;101989.97;;;5.94;59.91
11041;BME280;5573;49.592;8.662;2023-02-10T13:19:03;102012.03;;;6.36;58.15